LGAL/AXD METAR and TAF weather

Enter ICAO airport designator
Station Type Date Time Source
LGAL METAR 2019/06/18 04:50 UTC NOAA

LGAL 180450Z 08006KT CAVOK 24/16 Q1012


Station Type Date Time Source
LGAL Decoded METAR 2019/06/18 04:50 UTC NOAA

Alexandroupoli Airport , Greece (LGAL) 40-51N 025-55E 3M
Jun 18, 2019 - 12:50 AM EDT / 2019.06.18 0450 UTC
Wind: from the E (080 degrees) at 7 MPH (6 KT):0
Visibility: greater than 7 mile(s):0
Temperature: 75 F (24 C)
Dew Point: 60 F (16 C)
Relative Humidity: 60%
Pressure (altimeter): 29.88 in. Hg (1012 hPa)
ob: LGAL 180450Z 08006KT CAVOK 24/16 Q1012
cycle: 5

Station Type Date Time Source
LGAL TAF 2012/09/21 03:06 UTC NOAA

TAF TAF LGAL 210200Z 2103/2115 03012G22KT 9999 FEW020 SCT070 PROB30
TEMPO 2103/2106 6000 RA SCT015 BKN030 PROB30

Example: see airport list